Terminal Aerodrome Forecast
Issued by NWS Dodge City, KS

Home | Current Version | Previous Version | Graphics & Text | Print | Product List | Glossary Off
Versions: 1 2 3 4 5 6 7 8 9 10 11 12 13 14 15 16

000
FTUS43 KDDC 251735
TAFDDC
TAF
KDDC 251735Z 2518/2618 35013KT P6SM SCT020
      TEMPO 2518/2520 BKN020
     FM252000 35012KT P6SM BKN035
     FM260000 02011KT P6SM OVC045
     FM260300 01012KT P6SM VCSH OVC025
     FM260700 36017G27KT P6SM VCSH OVC015
     FM261100 35019G28KT P6SM OVC035=

USA.gov is the U.S. government's official web portal to all federal, state and local government web resources and services.